createdAt,value
2018-03-28T00:01:11.459Z,84.53
2018-03-28T00:03:40.291Z,88.47
2018-03-28T00:06:08.388Z,96.07
2018-03-28T00:08:36.455Z,91.30
2018-03-28T00:11:04.535Z,100.33
2018-03-28T00:13:32.627Z,101.50
2018-03-28T00:16:00.695Z,89.20
2018-03-28T00:18:28.794Z,98.83
2018-03-28T00:20:58.126Z,97.33
2018-03-28T00:23:26.220Z,99.67
2018-03-28T00:25:54.402Z,99.20
2018-03-28T00:28:22.489Z,90.80
2018-03-28T00:30:50.562Z,108.60
2018-03-28T00:33:18.659Z,105.83
2018-03-28T00:35:47.654Z,97.47
2018-03-28T00:38:15.752Z,110.00
2018-03-28T00:40:43.820Z,100.23
2018-03-28T00:43:12.204Z,117.43
2018-03-28T00:45:40.271Z,109.50
2018-03-28T00:48:09.221Z,107.90
2018-03-28T00:50:37.304Z,107.57
2018-03-28T00:53:05.422Z,115.37
2018-03-28T00:55:33.611Z,111.87
2018-03-28T00:58:01.688Z,116.20
2018-03-28T01:00:29.781Z,120.00
2018-03-28T01:02:58.983Z,110.83
2018-03-28T01:05:27.072Z,114.60
2018-03-28T01:07:55.914Z,113.50
2018-03-28T01:10:23.987Z,120.27
2018-03-28T01:12:52.080Z,123.30
2018-03-28T01:15:21.177Z,110.00
2018-03-28T01:17:49.276Z,118.40
2018-03-28T01:20:18.223Z,123.63
2018-03-28T01:22:48.007Z,118.60
2018-03-28T01:25:16.928Z,124.10
2018-03-28T01:27:45.728Z,120.13
2018-03-28T01:30:13.812Z,122.10
2018-03-28T01:32:41.971Z,125.70
2018-03-28T01:35:10.043Z,130.83
2018-03-28T01:37:38.129Z,124.87
2018-03-28T01:40:06.220Z,130.40
2018-03-28T01:42:35.342Z,120.23
2018-03-28T01:45:03.433Z,117.47
2018-03-28T01:47:31.506Z,125.60
2018-03-28T01:49:59.611Z,129.20
2018-03-28T01:52:27.688Z,124.10
2018-03-28T01:54:55.792Z,134.43
2018-03-28T01:57:23.863Z,124.77
2018-03-28T01:59:51.951Z,126.13
2018-03-28T02:02:20.318Z,121.17
2018-03-28T02:04:48.425Z,126.00
2018-03-28T02:07:16.496Z,116.60
2018-03-28T02:09:44.586Z,122.30
2018-03-28T02:12:13.786Z,123.00
2018-03-28T02:14:41.857Z,128.13
2018-03-28T02:17:09.952Z,137.70
2018-03-28T02:19:38.023Z,114.03
2018-03-28T02:22:06.120Z,122.43
2018-03-28T02:24:34.187Z,134.57
2018-03-28T02:27:02.268Z,139.07
2018-03-28T02:29:30.370Z,136.03
2018-03-28T02:31:58.445Z,126.67
2018-03-28T02:34:26.547Z,138.00
2018-03-28T02:36:54.623Z,137.63
2018-03-28T02:39:23.487Z,139.43
2018-03-28T02:41:51.599Z,137.50
2018-03-28T02:44:19.651Z,136.83
2018-03-28T02:46:47.740Z,128.87
2018-03-28T02:49:16.787Z,148.00
2018-03-28T02:51:46.152Z,133.97
2018-03-28T02:54:14.243Z,133.43
2018-03-28T02:56:44.002Z,122.80
2018-03-28T02:59:12.109Z,123.60
2018-03-28T03:01:40.418Z,122.23
2018-03-28T03:04:08.565Z,123.07
2018-03-28T03:06:36.647Z,128.13
2018-03-28T03:09:04.772Z,128.77
2018-03-28T03:11:32.851Z,135.17
2018-03-28T03:14:01.717Z,129.60
2018-03-28T03:16:29.823Z,136.77
2018-03-28T03:18:57.986Z,122.83
2018-03-28T03:21:26.103Z,125.87
2018-03-28T03:23:54.188Z,135.27
2018-03-28T03:26:22.279Z,144.10
2018-03-28T03:28:50.355Z,121.33
2018-03-28T03:31:18.452Z,127.63
2018-03-28T03:33:46.529Z,132.93
2018-03-28T03:36:14.626Z,118.93
2018-03-28T03:38:42.701Z,120.60
2018-03-28T03:41:10.797Z,121.90
2018-03-28T03:43:39.015Z,115.57
2018-03-28T03:46:07.865Z,119.27
2018-03-28T03:48:36.863Z,111.80
2018-03-28T03:51:05.150Z,111.60
2018-03-28T03:53:33.343Z,121.30
2018-03-28T03:56:01.450Z,120.63
2018-03-28T03:58:29.528Z,124.20
2018-03-28T04:00:57.896Z,112.80
2018-03-28T04:03:26.007Z,120.80
2018-03-28T04:05:54.106Z,125.27
2018-03-28T04:08:22.310Z,123.77
2018-03-28T04:10:50.375Z,113.87
2018-03-28T04:13:18.527Z,113.07
2018-03-28T04:15:46.616Z,96.33
2018-03-28T04:18:15.452Z,97.47
2018-03-28T04:20:43.527Z,87.80
2018-03-28T04:23:11.790Z,90.83
2018-03-28T04:25:39.870Z,85.87
2018-03-28T04:28:07.963Z,95.27
2018-03-28T04:30:36.030Z,85.27
2018-03-28T04:33:04.130Z,84.53
2018-03-28T04:35:37.672Z,87.90
2018-03-28T04:38:05.769Z,77.00
2018-03-28T04:40:33.864Z,86.10
2018-03-28T04:43:01.941Z,84.93
2018-03-28T04:45:30.024Z,68.73
2018-03-28T04:47:58.121Z,79.30
2018-03-28T04:50:26.215Z,77.67
2018-03-28T04:52:54.419Z,77.03
2018-03-28T04:55:22.785Z,74.93
2018-03-28T04:57:53.271Z,69.90
2018-03-28T05:00:21.358Z,77.33
2018-03-28T05:02:49.435Z,74.20
2018-03-28T05:05:17.529Z,77.97
2018-03-28T05:07:45.612Z,84.80
2018-03-28T05:10:14.509Z,80.63
2018-03-28T05:12:43.245Z,96.07
2018-03-28T05:15:11.311Z,88.33
2018-03-28T05:17:40.475Z,82.33
2018-03-28T05:20:08.540Z,72.50
2018-03-28T05:22:37.455Z,90.57
2018-03-28T05:25:05.517Z,92.40
2018-03-28T05:27:34.454Z,76.10
2018-03-28T05:30:02.601Z,86.37
2018-03-28T05:32:30.670Z,86.47
2018-03-28T05:34:58.747Z,81.33
2018-03-28T05:37:26.839Z,90.53
2018-03-28T05:39:54.921Z,83.00
2018-03-28T05:42:23.023Z,87.97
2018-03-28T05:44:51.106Z,95.20
2018-03-28T05:47:19.443Z,93.47
2018-03-28T05:49:48.232Z,94.47
2018-03-28T05:52:17.043Z,94.87
2018-03-28T05:54:45.130Z,102.77
2018-03-28T05:57:13.476Z,98.67
2018-03-28T05:59:41.575Z,100.97
2018-03-28T06:02:09.647Z,94.40
2018-03-28T06:04:37.735Z,112.63
2018-03-28T06:07:06.580Z,107.67
2018-03-28T06:09:34.658Z,94.57
2018-03-28T06:12:02.752Z,111.57
2018-03-28T06:14:30.827Z,107.23
2018-03-28T06:16:58.927Z,111.47
2018-03-28T06:19:27.768Z,106.63
2018-03-28T06:21:55.862Z,119.77
2018-03-28T06:24:24.059Z,102.63
2018-03-28T06:26:52.152Z,115.57
2018-03-28T06:29:20.256Z,116.27
2018-03-28T06:31:48.336Z,192.53
2018-03-28T06:34:17.181Z,101.67
2018-03-28T06:36:46.142Z,118.80
2018-03-28T06:39:15.003Z,113.83
2018-03-28T06:41:43.099Z,117.80
2018-03-28T06:44:11.900Z,118.40
2018-03-28T06:46:40.577Z,118.23
2018-03-28T06:49:08.898Z,125.20
2018-03-28T06:51:37.149Z,114.20
2018-03-28T06:54:05.993Z,101.77
2018-03-28T06:56:34.079Z,113.70
2018-03-28T06:59:02.979Z,109.37
2018-03-28T07:01:31.885Z,110.00
2018-03-28T07:04:00.739Z,100.53
2018-03-28T07:06:28.842Z,110.17
2018-03-28T07:08:56.934Z,117.40
2018-03-28T07:11:25.793Z,110.57
2018-03-28T07:13:54.211Z,110.77
2018-03-28T07:16:22.300Z,123.47
2018-03-28T07:18:50.385Z,107.43
2018-03-28T07:21:18.479Z,115.07
2018-03-28T07:23:46.555Z,120.67
2018-03-28T07:26:14.656Z,122.97
2018-03-28T07:28:44.406Z,116.60
2018-03-28T07:31:12.563Z,116.43
2018-03-28T07:33:42.940Z,103.37
2018-03-28T07:36:11.051Z,121.03
2018-03-28T07:38:39.955Z,124.17
2018-03-28T07:41:08.236Z,131.83
2018-03-28T07:43:36.371Z,144.53
2018-03-28T07:46:04.488Z,143.17
2018-03-28T07:48:32.586Z,141.87
2018-03-28T07:51:00.739Z,142.27
2018-03-28T07:53:28.836Z,143.30
2018-03-28T07:55:56.915Z,137.30
2018-03-28T07:58:25.004Z,136.53
2018-03-28T08:00:53.103Z,143.20
2018-03-28T08:03:21.191Z,149.50
2018-03-28T08:05:49.360Z,122.03
2018-03-28T08:08:17.580Z,155.27
2018-03-28T08:10:45.676Z,121.87
2018-03-28T08:13:13.754Z,122.80
2018-03-28T08:15:41.854Z,133.53
2018-03-28T08:18:09.937Z,117.53
2018-03-28T08:20:38.020Z,125.97
2018-03-28T08:23:06.120Z,122.00
2018-03-28T08:25:34.202Z,129.43
2018-03-28T08:28:02.290Z,107.33
2018-03-28T08:30:31.128Z,106.47
2018-03-28T08:32:59.230Z,121.40
2018-03-28T08:35:27.329Z,119.47
2018-03-28T08:37:57.011Z,114.73
2018-03-28T08:40:25.080Z,113.20
2018-03-28T08:42:53.172Z,110.63
2018-03-28T08:45:22.009Z,114.20
2018-03-28T08:47:50.368Z,109.40
2018-03-28T08:50:18.471Z,107.30
2018-03-28T08:52:47.308Z,106.43
2018-03-28T08:55:15.411Z,109.93
2018-03-28T08:57:43.482Z,96.80
2018-03-28T09:00:11.579Z,102.10
2018-03-28T09:02:39.660Z,94.80
2018-03-28T09:05:08.578Z,103.07
2018-03-28T09:07:37.670Z,109.33
2018-03-28T09:10:05.889Z,110.33
2018-03-28T09:12:33.983Z,107.00
2018-03-28T09:15:02.167Z,111.70
2018-03-28T09:17:30.262Z,104.73
2018-03-28T09:19:58.365Z,123.43
2018-03-28T09:22:26.463Z,125.60
2018-03-28T09:24:54.574Z,120.57
2018-03-28T09:27:22.875Z,111.13
2018-03-28T09:29:51.222Z,122.23
2018-03-28T09:32:19.303Z,117.20
2018-03-28T09:34:47.391Z,103.40
2018-03-28T09:37:16.643Z,109.90
2018-03-28T09:39:44.761Z,101.90
2018-03-28T09:42:13.655Z,112.37
2018-03-28T09:44:42.514Z,107.03
2018-03-28T09:47:11.658Z,115.40
2018-03-28T09:49:39.755Z,102.00
2018-03-28T09:52:07.834Z,96.50
2018-03-28T09:54:36.693Z,103.13
2018-03-28T09:57:04.797Z,93.10
2018-03-28T09:59:32.875Z,95.40
2018-03-28T10:02:00.973Z,93.47
2018-03-28T10:04:35.234Z,89.57
2018-03-28T10:07:03.377Z,90.20
2018-03-28T10:09:31.588Z,81.40
2018-03-28T10:11:59.684Z,84.47
2018-03-28T10:14:27.788Z,76.43
2018-03-28T10:16:55.867Z,85.93
2018-03-28T10:19:24.868Z,83.70
2018-03-28T10:21:53.715Z,95.03
2018-03-28T10:24:21.808Z,83.53
2018-03-28T10:26:52.284Z,77.77
2018-03-28T10:29:26.016Z,68.83
2018-03-28T10:31:54.100Z,75.13
2018-03-28T10:34:23.320Z,71.73
2018-03-28T10:36:51.416Z,83.33
2018-03-28T10:39:20.270Z,66.60
2018-03-28T10:41:48.466Z,72.30
2018-03-28T10:44:17.310Z,88.23
2018-03-28T10:46:45.883Z,79.10
2018-03-28T10:49:13.985Z,74.37
2018-03-28T10:51:42.063Z,79.00
2018-03-28T10:54:10.155Z,64.90
2018-03-28T10:56:39.106Z,68.00
2018-03-28T10:59:07.844Z,73.93
2018-03-28T11:01:36.775Z,80.40
2018-03-28T11:04:04.875Z,70.67
2018-03-28T11:06:32.959Z,67.17
2018-03-28T11:09:01.073Z,66.23
2018-03-28T11:11:29.146Z,62.47
2018-03-28T11:13:57.281Z,71.80
2018-03-28T11:16:26.289Z,68.80
2018-03-28T11:18:54.396Z,70.63
2018-03-28T11:21:22.492Z,65.67
2018-03-28T11:23:50.933Z,61.77
2018-03-28T11:26:19.013Z,65.07
2018-03-28T11:28:47.110Z,58.23
2018-03-28T11:31:15.209Z,52.93
2018-03-28T11:33:43.303Z,60.40
2018-03-28T11:36:13.210Z,56.20
2018-03-28T11:38:42.077Z,53.93
2018-03-28T11:41:16.487Z,69.27
2018-03-28T11:43:45.468Z,52.73
2018-03-28T11:46:13.543Z,61.70
2018-03-28T11:48:41.631Z,68.20
2018-03-28T11:51:09.719Z,50.30
2018-03-28T11:53:37.815Z,45.93
2018-03-28T11:56:06.660Z,53.73
2018-03-28T11:58:34.808Z,54.53
2018-03-28T12:01:02.888Z,52.00
2018-03-28T12:03:30.987Z,46.83
2018-03-28T12:05:59.060Z,50.03
2018-03-28T12:08:28.088Z,47.50
2018-03-28T12:10:56.932Z,51.83
2018-03-28T12:13:25.014Z,44.10
2018-03-28T12:15:53.173Z,50.23
2018-03-28T12:18:21.340Z,50.30
2018-03-28T12:20:49.619Z,50.17
2018-03-28T12:23:18.682Z,51.90
2018-03-28T12:25:47.043Z,43.40
2018-03-28T12:28:15.899Z,48.50
2018-03-28T12:30:43.995Z,46.97
2018-03-28T12:33:12.067Z,45.37
2018-03-28T12:35:40.169Z,46.13
2018-03-28T12:38:08.265Z,45.23
2018-03-28T12:40:36.440Z,53.70
2018-03-28T12:43:04.518Z,47.80
2018-03-28T12:45:32.654Z,49.40
2018-03-28T12:48:00.694Z,40.57
2018-03-28T12:50:28.832Z,35.77
2018-03-28T12:52:56.916Z,26.83
2018-03-28T12:55:25.056Z,29.90
2018-03-28T12:57:53.123Z,24.80
2018-03-28T13:00:21.199Z,28.07
2018-03-28T13:02:49.297Z,23.53
2018-03-28T13:05:17.363Z,29.57
2018-03-28T13:07:45.434Z,32.83
2018-03-28T13:10:13.540Z,33.73
2018-03-28T13:12:41.620Z,31.90
2018-03-28T13:17:42.542Z,31.10
2018-03-28T13:20:10.642Z,31.03
2018-03-28T13:22:38.788Z,28.37
2018-03-28T13:25:06.886Z,34.63
2018-03-28T13:27:35.139Z,24.23
2018-03-28T13:30:03.405Z,20.73
2018-03-28T13:32:31.486Z,18.67
2018-03-28T13:34:59.579Z,16.60
2018-03-28T13:37:27.655Z,14.83
2018-03-28T13:39:55.803Z,19.77
2018-03-28T13:42:23.904Z,23.03
2018-03-28T13:44:52.013Z,27.97
2018-03-28T13:47:20.095Z,19.23
2018-03-28T13:49:48.164Z,27.90
2018-03-28T13:52:16.950Z,21.50
2018-03-28T13:54:45.056Z,25.43
2018-03-28T13:57:19.306Z,20.50
2018-03-28T13:59:47.674Z,18.63
2018-03-28T14:02:15.872Z,22.73
2018-03-28T14:04:45.458Z,19.10
2018-03-28T14:07:13.548Z,13.80
2018-03-28T14:09:47.511Z,23.87
2018-03-28T14:12:19.553Z,18.00
2018-03-28T14:14:47.844Z,17.33
2018-03-28T14:17:16.637Z,19.60
2018-03-28T14:19:44.729Z,21.30
2018-03-28T14:22:12.824Z,21.93
2018-03-28T14:24:40.920Z,20.40
2018-03-28T14:27:09.035Z,20.23
2018-03-28T14:29:37.143Z,27.20
2018-03-28T14:32:06.028Z,35.40
2018-03-28T14:34:34.119Z,34.13
2018-03-28T14:37:02.996Z,22.83
2018-03-28T14:39:31.086Z,26.00
2018-03-28T14:41:59.959Z,20.40
2018-03-28T14:44:28.038Z,25.87
2018-03-28T14:46:57.886Z,21.40
2018-03-28T14:49:25.981Z,18.37
2018-03-28T14:51:54.070Z,23.73
2018-03-28T14:54:22.156Z,28.90
2018-03-28T14:56:50.265Z,32.07
2018-03-28T14:59:18.358Z,26.80
2018-03-28T15:01:46.447Z,34.40
2018-03-28T15:04:14.531Z,24.10
2018-03-28T15:06:42.630Z,26.20
2018-03-28T15:09:10.707Z,21.97
2018-03-28T15:11:38.798Z,21.40
2018-03-28T15:14:06.887Z,31.43
2018-03-28T15:16:34.970Z,24.13
2018-03-28T15:19:03.173Z,23.47
2018-03-28T15:21:31.505Z,21.53
2018-03-28T15:23:59.895Z,21.83
2018-03-28T15:26:27.974Z,18.60
2018-03-28T15:28:56.147Z,21.90
2018-03-28T15:31:24.229Z,23.70
2018-03-28T15:33:52.315Z,21.67
2018-03-28T15:36:20.386Z,24.07
2018-03-28T15:38:48.474Z,22.63
2018-03-28T15:41:17.152Z,22.60
2018-03-28T15:43:45.236Z,20.57
2018-03-28T15:46:13.333Z,22.50
2018-03-28T15:48:42.521Z,23.27
2018-03-28T15:51:10.665Z,26.27
2018-03-28T15:53:38.739Z,22.20
2018-03-28T15:56:06.837Z,24.93
2018-03-28T15:58:34.938Z,20.60
2018-03-28T16:01:03.014Z,18.53
2018-03-28T16:03:31.099Z,22.77
2018-03-28T16:05:59.210Z,27.37
2018-03-28T16:08:28.534Z,26.00
2018-03-28T16:10:57.666Z,23.70
2018-03-28T16:13:29.400Z,18.40
2018-03-28T16:15:57.495Z,18.07
2018-03-28T16:18:26.438Z,25.80
2018-03-28T16:20:54.769Z,24.03
2018-03-28T16:23:22.870Z,17.37
2018-03-28T16:25:50.982Z,21.03
2018-03-28T16:28:19.123Z,21.83
2018-03-28T16:30:47.359Z,21.07
2018-03-28T16:33:15.451Z,28.17
2018-03-28T16:35:43.556Z,21.97
2018-03-28T16:38:12.392Z,22.30
2018-03-28T16:40:40.573Z,30.00
2018-03-28T16:43:08.649Z,23.13
2018-03-28T16:45:36.772Z,20.50
2018-03-28T16:48:05.339Z,22.80
2018-03-28T16:50:33.396Z,19.67
2018-03-28T16:53:01.493Z,20.30
2018-03-28T16:55:29.564Z,24.83
2018-03-28T16:57:58.421Z,19.67
2018-03-28T17:00:26.498Z,20.10
2018-03-28T17:02:54.720Z,21.77
2018-03-28T17:05:22.803Z,30.33
2018-03-28T17:07:51.064Z,24.47
2018-03-28T17:10:19.085Z,20.23
2018-03-28T17:12:47.281Z,19.73
2018-03-28T17:15:15.395Z,16.87
2018-03-28T17:17:43.579Z,19.33
2018-03-28T17:20:11.694Z,20.73
2018-03-28T17:22:40.406Z,18.60
2018-03-28T17:25:08.525Z,17.67
2018-03-28T17:27:36.617Z,18.37
2018-03-28T17:30:04.765Z,20.30
2018-03-28T17:32:32.897Z,20.60
2018-03-28T17:35:01.878Z,18.23
2018-03-28T17:37:30.813Z,21.57
2018-03-28T17:39:59.000Z,18.43
2018-03-28T17:42:27.586Z,19.07
2018-03-28T17:44:55.705Z,20.73
2018-03-28T17:47:23.822Z,21.50
2018-03-28T17:49:52.643Z,17.37
2018-03-28T17:52:20.723Z,19.23
2018-03-28T17:54:48.903Z,21.33
2018-03-28T17:57:17.457Z,20.47
2018-03-28T17:59:46.212Z,22.87
2018-03-28T18:02:14.295Z,20.07
2018-03-28T18:04:42.363Z,21.67
2018-03-28T18:07:10.464Z,23.90
2018-03-28T18:09:39.251Z,22.27
2018-03-28T18:12:07.344Z,22.73
2018-03-28T18:14:35.418Z,19.90
2018-03-28T18:17:03.562Z,19.40
2018-03-28T18:19:31.650Z,16.87
2018-03-28T18:21:59.896Z,19.90
2018-03-28T18:24:27.988Z,10.40
2018-03-28T18:26:56.064Z,6.60
2018-03-28T18:29:25.500Z,8.00
2018-03-28T18:31:53.616Z,6.53
2018-03-28T18:34:21.751Z,9.27
2018-03-28T18:36:50.816Z,5.97
2018-03-28T18:39:18.893Z,7.97
2018-03-28T18:41:46.988Z,9.10
2018-03-28T18:44:15.830Z,7.53
2018-03-28T18:46:43.922Z,12.77
2018-03-28T18:49:12.884Z,11.70
2018-03-28T18:51:41.100Z,9.83
2018-03-28T18:54:09.345Z,9.40
2018-03-28T18:56:37.414Z,11.53
2018-03-28T18:59:05.716Z,7.27
2018-03-28T19:01:33.802Z,6.83
2018-03-28T19:04:02.354Z,7.07
2018-03-28T19:06:31.880Z,5.83
2018-03-28T19:09:00.142Z,5.57
2018-03-28T19:11:28.213Z,7.17
2018-03-28T19:13:56.286Z,7.40
2018-03-28T19:16:24.545Z,6.23
2018-03-28T19:18:52.608Z,8.53
2018-03-28T19:21:20.757Z,9.23
2018-03-28T19:23:48.955Z,12.57
2018-03-28T19:26:17.027Z,10.43
2018-03-28T19:28:45.856Z,12.13
2018-03-28T19:31:14.041Z,10.77
2018-03-28T19:33:42.138Z,12.43
2018-03-28T19:36:10.256Z,13.07
2018-03-28T19:38:38.326Z,13.33
2018-03-28T19:41:07.467Z,20.47
2018-03-28T19:43:36.331Z,15.77
2018-03-28T19:46:04.941Z,18.90
2018-03-28T19:48:34.002Z,48.60
2018-03-28T19:51:05.298Z,20.57
2018-03-28T19:53:34.175Z,34.13
2018-03-28T19:56:02.276Z,32.00
2018-03-28T19:58:30.889Z,30.13
2018-03-28T20:00:58.951Z,35.20
2018-03-28T20:03:27.051Z,32.97
2018-03-28T20:05:55.227Z,35.33
2018-03-28T20:08:23.324Z,40.70
2018-03-28T20:10:51.433Z,27.87
2018-03-28T20:13:19.792Z,31.47
2018-03-28T20:15:47.884Z,31.13
2018-03-28T20:18:15.962Z,27.53
2018-03-28T20:20:48.060Z,22.73
2018-03-28T20:23:16.208Z,19.93
2018-03-28T20:25:45.673Z,27.87
2018-03-28T20:28:13.787Z,27.03
2018-03-28T20:30:41.884Z,19.87
2018-03-28T20:33:09.979Z,19.57
2018-03-28T20:35:38.979Z,18.40
2018-03-28T20:38:07.187Z,25.77
2018-03-28T20:40:36.936Z,15.63
2018-03-28T20:43:05.621Z,19.93
2018-03-28T20:45:33.925Z,20.20
2018-03-28T20:48:03.160Z,17.80
2018-03-28T20:53:03.676Z,18.97
2018-03-28T20:55:31.774Z,16.37
2018-03-28T20:57:59.943Z,30.97
2018-03-28T21:00:28.842Z,20.53
2018-03-28T21:02:56.967Z,21.90
2018-03-28T21:05:26.009Z,21.37
2018-03-28T21:07:54.161Z,23.00
2018-03-28T21:10:22.183Z,22.50
2018-03-28T21:12:50.300Z,22.50
2018-03-28T21:15:18.745Z,21.60
2018-03-28T21:17:46.860Z,16.70
2018-03-28T21:20:14.937Z,13.60
2018-03-28T21:22:43.022Z,13.30
2018-03-28T21:25:11.363Z,14.43
2018-03-28T21:27:39.736Z,14.20
2018-03-28T21:30:07.815Z,15.10
2018-03-28T21:32:36.693Z,11.27
2018-03-28T21:35:05.843Z,11.87
2018-03-28T21:37:34.167Z,10.00
2018-03-28T21:40:02.305Z,10.33
2018-03-28T21:42:30.419Z,9.53
2018-03-28T21:44:59.770Z,8.83
2018-03-28T21:47:27.916Z,11.10
2018-03-28T21:49:55.979Z,11.67
2018-03-28T21:52:24.039Z,9.10
2018-03-28T21:54:53.038Z,9.07
2018-03-28T21:57:22.105Z,9.40
2018-03-28T21:59:50.830Z,9.50
2018-03-28T22:02:18.928Z,8.00
2018-03-28T22:04:47.026Z,8.07
2018-03-28T22:07:15.151Z,10.80
2018-03-28T22:09:43.217Z,10.30
2018-03-28T22:12:11.330Z,11.17
2018-03-28T22:14:39.429Z,8.00
2018-03-28T22:17:07.487Z,9.67
2018-03-28T22:19:35.573Z,10.37
2018-03-28T22:22:04.681Z,11.83
2018-03-28T22:24:32.742Z,9.37
2018-03-28T22:27:00.989Z,8.30
2018-03-28T22:29:29.086Z,7.43
2018-03-28T22:31:57.182Z,7.20
2018-03-28T22:34:25.327Z,6.77
2018-03-28T22:36:53.403Z,6.20
2018-03-28T22:39:21.490Z,11.20
2018-03-28T22:41:50.500Z,5.27
2018-03-28T22:44:18.575Z,6.10
2018-03-28T22:46:47.395Z,6.93
2018-03-28T22:49:15.480Z,8.10
2018-03-28T22:51:43.563Z,7.70
2018-03-28T22:54:12.543Z,9.77
2018-03-28T22:56:40.640Z,8.93
2018-03-28T22:59:08.739Z,11.53
2018-03-28T23:01:37.605Z,10.70
2018-03-28T23:04:05.743Z,12.27
2018-03-28T23:06:34.912Z,13.87
2018-03-28T23:09:02.984Z,14.70
2018-03-28T23:11:31.090Z,18.60
2018-03-28T23:13:59.264Z,18.40
2018-03-28T23:16:27.490Z,19.43
2018-03-28T23:18:56.382Z,19.73
2018-03-28T23:21:25.243Z,19.63
2018-03-28T23:23:53.375Z,16.47
2018-03-28T23:26:21.517Z,20.40
2018-03-28T23:28:49.600Z,17.20
2018-03-28T23:31:18.467Z,17.27
2018-03-28T23:33:46.567Z,12.10
2018-03-28T23:36:15.424Z,14.50
2018-03-28T23:38:43.543Z,13.13
2018-03-28T23:41:11.632Z,12.57
2018-03-28T23:43:39.739Z,11.27
2018-03-28T23:46:08.843Z,12.00
2018-03-28T23:48:36.928Z,14.33
2018-03-28T23:51:05.015Z,14.47
2018-03-28T23:53:33.855Z,16.20
2018-03-28T23:56:02.097Z,14.27
2018-03-28T23:58:30.389Z,17.97
